Rockwall, Texas
Current Conditions -  °F | °C
As of 9:15 AM on Wednesday 26 Nov 2014 (Local Time) from KF46 Reporting Station
Clear Clear  
Wind Chill: 46°   Ceiling: Unl
Heat Index: 49°   Visibility: 10mi
Dew Point: 32°   Wind: 7mph
Humidity: 51%   Direction: 240°WSW
Pressure: 30.1"   Gusts: NA
Location:  32.93°N, 96.46°W
Report Text: KF46 261515Z AUTO 24006KT 10SM CLR 10/00 A3010 RMK AO2 T00951002
Loading
Personal Weather Stations






























Interactive Weather Map New forecast layout! Learn more

10-Day Weather Forecast

Advertisements
Track Severe Weather on mobile